createdAt,value
2023-03-20T00:01:39.842Z,18.39
2023-03-20T00:04:06.432Z,18.39
2023-03-20T00:06:33.032Z,18.38
2023-03-20T00:08:59.605Z,18.39
2023-03-20T00:11:41.290Z,18.38
2023-03-20T00:14:14.515Z,18.37
2023-03-20T00:16:43.839Z,18.37
2023-03-20T00:19:17.528Z,18.36
2023-03-20T00:21:46.528Z,18.35
2023-03-20T00:24:13.718Z,18.37
2023-03-20T00:26:40.740Z,18.36
2023-03-20T00:29:11.844Z,18.35
2023-03-20T00:31:39.829Z,18.33
2023-03-20T00:34:12.996Z,18.32
2023-03-20T00:36:39.741Z,18.31
2023-03-20T00:39:06.802Z,18.30
2023-03-20T00:41:39.063Z,18.29
2023-03-20T00:44:27.962Z,18.26
2023-03-20T00:47:11.380Z,18.29
2023-03-20T00:49:38.364Z,18.28
2023-03-20T00:52:05.686Z,18.26
2023-03-20T00:54:32.541Z,18.24
2023-03-20T00:57:07.826Z,18.23
2023-03-20T00:59:38.277Z,18.22
2023-03-20T01:02:05.169Z,18.21
2023-03-20T01:04:37.893Z,18.19
2023-03-20T01:07:05.560Z,18.18
2023-03-20T01:09:32.133Z,18.18
2023-03-20T01:12:03.113Z,18.16
2023-03-20T01:14:30.057Z,18.16
2023-03-20T01:16:56.630Z,18.15
2023-03-20T01:19:23.181Z,18.14
2023-03-20T01:21:50.245Z,18.14
2023-03-20T01:24:16.746Z,18.13
2023-03-20T01:26:44.962Z,18.13
2023-03-20T01:29:23.499Z,18.10
2023-03-20T01:31:51.878Z,18.10
2023-03-20T01:34:19.706Z,18.10
2023-03-20T01:36:51.572Z,18.08
2023-03-20T01:39:19.272Z,18.08
2023-03-20T01:41:47.130Z,18.06
2023-03-20T01:44:19.926Z,18.06
2023-03-20T01:46:46.784Z,18.04
2023-03-20T01:49:19.167Z,18.02
2023-03-20T01:51:46.714Z,18.03
2023-03-20T01:54:16.628Z,18.01
2023-03-20T01:56:50.999Z,18.01
2023-03-20T01:59:24.628Z,18.00
2023-03-20T02:01:51.244Z,17.99
2023-03-20T02:04:21.311Z,17.99
2023-03-20T02:06:48.061Z,17.98
2023-03-20T02:09:14.687Z,17.98
2023-03-20T02:11:43.587Z,17.97
2023-03-20T02:14:11.198Z,17.96
2023-03-20T02:16:37.751Z,17.97
2023-03-20T02:19:07.730Z,17.97
2023-03-20T02:21:58.622Z,17.93
2023-03-20T02:24:46.115Z,17.93
2023-03-20T02:27:38.862Z,17.92
2023-03-20T02:30:24.392Z,17.91
2023-03-20T02:33:09.668Z,17.90
2023-03-20T02:35:54.325Z,17.88
2023-03-20T02:38:33.193Z,17.88
2023-03-20T02:41:30.635Z,17.86
2023-03-20T02:44:12.957Z,17.86
2023-03-20T02:46:51.314Z,17.85
2023-03-20T02:49:42.562Z,17.86
2023-03-20T02:52:24.292Z,17.84
2023-03-20T02:55:08.625Z,17.82
2023-03-20T02:57:41.174Z,17.81
2023-03-20T03:00:21.309Z,17.81
2023-03-20T03:02:58.430Z,17.79
2023-03-20T03:05:32.318Z,17.78
2023-03-20T03:08:02.768Z,17.76
2023-03-20T03:10:36.905Z,17.76
2023-03-20T03:13:07.780Z,17.74
2023-03-20T03:15:45.316Z,17.73
2023-03-20T03:18:17.480Z,17.74
2023-03-20T03:20:45.798Z,17.72
2023-03-20T03:23:26.790Z,17.71
2023-03-20T03:25:55.791Z,17.71
2023-03-20T03:28:29.912Z,17.69
2023-03-20T03:30:58.954Z,17.69
2023-03-20T03:33:29.667Z,17.67
2023-03-20T03:36:08.736Z,17.66
2023-03-20T03:38:45.988Z,17.66
2023-03-20T03:41:18.463Z,17.65
2023-03-20T03:44:05.356Z,17.63
2023-03-20T03:46:53.146Z,17.64
2023-03-20T03:49:26.417Z,17.63
2023-03-20T03:51:58.482Z,17.62
2023-03-20T03:54:31.305Z,17.61
2023-03-20T03:57:01.283Z,17.63
2023-03-20T03:59:37.830Z,17.61
2023-03-20T04:02:08.491Z,17.61
2023-03-20T04:04:40.397Z,17.60
2023-03-20T04:07:06.923Z,17.59
2023-03-20T04:09:33.673Z,17.58
2023-03-20T04:12:00.356Z,17.58
2023-03-20T04:14:27.266Z,17.57
2023-03-20T04:16:53.758Z,17.57
2023-03-20T04:19:20.293Z,17.57
2023-03-20T04:21:47.040Z,17.55
2023-03-20T04:24:13.623Z,17.55
2023-03-20T04:26:40.491Z,17.54
2023-03-20T04:29:07.043Z,17.55
2023-03-20T04:31:33.658Z,17.54
2023-03-20T04:34:00.266Z,17.53
2023-03-20T04:36:26.792Z,17.52
2023-03-20T04:38:55.213Z,17.51
2023-03-20T04:41:23.592Z,17.50
2023-03-20T04:43:50.212Z,17.50
2023-03-20T04:46:16.856Z,17.49
2023-03-20T04:48:43.464Z,17.49
2023-03-20T04:51:10.400Z,17.48
2023-03-20T04:53:37.151Z,17.48
2023-03-20T04:56:03.751Z,17.45
2023-03-20T04:58:30.282Z,17.44
2023-03-20T05:00:56.878Z,17.45
2023-03-20T05:03:24.209Z,17.44
2023-03-20T05:05:51.014Z,17.42
2023-03-20T05:08:17.597Z,17.41
2023-03-20T05:10:44.222Z,17.41
2023-03-20T05:13:10.977Z,17.38
2023-03-20T05:15:37.865Z,17.37
2023-03-20T05:18:04.531Z,17.36
2023-03-20T05:20:31.162Z,17.34
2023-03-20T05:22:57.641Z,17.35
2023-03-20T05:25:24.143Z,17.34
2023-03-20T05:27:50.665Z,17.33
2023-03-20T05:30:17.556Z,17.33
2023-03-20T05:32:44.212Z,17.31
2023-03-20T05:35:11.377Z,17.30
2023-03-20T05:37:39.485Z,17.28
2023-03-20T05:40:07.280Z,17.26
2023-03-20T05:42:33.882Z,17.27
2023-03-20T05:45:00.573Z,17.26
2023-03-20T05:47:27.203Z,17.26
2023-03-20T05:49:53.804Z,17.25
2023-03-20T05:52:20.398Z,17.25
2023-03-20T05:54:47.432Z,17.24
2023-03-20T05:57:14.026Z,17.24
2023-03-20T05:59:40.799Z,17.22
2023-03-20T06:02:07.467Z,17.22
2023-03-20T06:04:35.003Z,17.22
2023-03-20T06:07:01.604Z,17.21
2023-03-20T06:09:28.185Z,17.20
2023-03-20T06:11:54.707Z,17.19
2023-03-20T06:14:21.262Z,17.19
2023-03-20T06:16:47.977Z,17.18
2023-03-20T06:19:14.557Z,17.19
2023-03-20T06:21:41.113Z,17.19
2023-03-20T06:24:07.802Z,17.19
2023-03-20T06:26:34.315Z,17.18
2023-03-20T06:29:01.598Z,17.18
2023-03-20T06:31:28.214Z,17.16
2023-03-20T06:33:54.790Z,17.16
2023-03-20T06:36:21.306Z,17.15
2023-03-20T06:38:47.862Z,17.14
2023-03-20T06:41:27.781Z,17.14
2023-03-20T06:44:00.457Z,17.15
2023-03-20T06:46:26.970Z,17.15
2023-03-20T06:48:53.524Z,17.13
2023-03-20T06:51:20.098Z,17.14
2023-03-20T06:53:46.675Z,17.13
2023-03-20T06:56:13.500Z,17.13
2023-03-20T06:58:40.075Z,17.13
2023-03-20T07:01:11.306Z,17.12
2023-03-20T07:03:37.851Z,17.12
2023-03-20T07:06:04.914Z,17.11
2023-03-20T07:08:32.570Z,17.12
2023-03-20T07:11:01.283Z,17.11
2023-03-20T07:13:28.340Z,17.10
2023-03-20T07:16:04.046Z,17.09
2023-03-20T07:18:31.584Z,17.08
2023-03-20T07:21:02.370Z,17.08
2023-03-20T07:23:30.756Z,17.08
2023-03-20T07:25:58.247Z,17.08
2023-03-20T07:28:24.928Z,17.08
2023-03-20T07:30:51.917Z,17.08
2023-03-20T07:33:18.606Z,17.07
2023-03-20T07:35:45.350Z,17.08
2023-03-20T07:38:11.903Z,17.08
2023-03-20T07:40:38.431Z,17.07
2023-03-20T07:43:04.987Z,17.06
2023-03-20T07:45:32.760Z,17.07
2023-03-20T07:47:59.413Z,17.07
2023-03-20T07:50:25.924Z,17.07
2023-03-20T07:52:52.427Z,17.08
2023-03-20T07:55:18.933Z,17.07
2023-03-20T07:57:45.572Z,17.08
2023-03-20T08:00:12.740Z,17.09
2023-03-20T08:02:39.258Z,17.10
2023-03-20T08:05:06.309Z,17.10
2023-03-20T08:07:33.122Z,17.12
2023-03-20T08:10:00.105Z,17.13
2023-03-20T08:12:27.013Z,17.12
2023-03-20T08:14:53.604Z,17.14
2023-03-20T08:17:21.897Z,17.15
2023-03-20T08:19:48.522Z,17.14
2023-03-20T08:22:15.139Z,17.14
2023-03-20T08:24:41.725Z,17.13
2023-03-20T08:27:08.471Z,17.14
2023-03-20T08:29:35.759Z,17.14
2023-03-20T08:32:02.277Z,17.13
2023-03-20T08:34:28.826Z,17.13
2023-03-20T08:36:55.671Z,17.14
2023-03-20T08:39:22.314Z,17.14
2023-03-20T08:41:49.690Z,17.14
2023-03-20T08:44:16.492Z,17.14
2023-03-20T08:46:44.782Z,17.16
2023-03-20T08:49:11.317Z,17.16
2023-03-20T08:51:37.804Z,17.16
2023-03-20T08:54:06.058Z,17.17
2023-03-20T08:56:32.614Z,17.18
2023-03-20T08:58:59.186Z,17.19
2023-03-20T09:01:35.313Z,17.18
2023-03-20T09:04:08.836Z,17.19
2023-03-20T09:06:39.904Z,17.18
2023-03-20T09:09:06.744Z,17.19
2023-03-20T09:11:33.787Z,17.20
2023-03-20T09:14:00.691Z,17.20
2023-03-20T09:16:28.236Z,17.20
2023-03-20T09:18:55.152Z,17.20
2023-03-20T09:21:21.692Z,17.20
2023-03-20T09:23:48.206Z,17.20
2023-03-20T09:26:14.724Z,17.21
2023-03-20T09:28:41.253Z,17.21
2023-03-20T09:31:07.834Z,17.21
2023-03-20T09:33:34.431Z,17.22
2023-03-20T09:36:01.248Z,17.21
2023-03-20T09:38:27.822Z,17.23
2023-03-20T09:40:57.578Z,17.23
2023-03-20T09:43:33.083Z,17.23
2023-03-20T09:46:25.860Z,17.23
2023-03-20T09:49:26.496Z,17.26
2023-03-20T09:51:59.120Z,17.26
2023-03-20T09:54:53.535Z,17.27
2023-03-20T09:57:39.395Z,17.28
2023-03-20T10:00:28.354Z,17.28
2023-03-20T10:03:03.402Z,17.31
2023-03-20T10:05:32.470Z,17.31
2023-03-20T10:08:03.044Z,17.33
2023-03-20T10:10:46.642Z,17.33
2023-03-20T10:13:37.157Z,17.31
2023-03-20T10:16:09.552Z,17.32
2023-03-20T10:18:40.712Z,17.35
2023-03-20T10:21:18.596Z,17.33
2023-03-20T10:24:03.777Z,17.34
2023-03-20T10:26:35.083Z,17.35
2023-03-20T10:29:18.910Z,17.37
2023-03-20T10:32:08.817Z,17.37
2023-03-20T10:34:41.811Z,17.38
2023-03-20T10:37:17.178Z,17.39
2023-03-20T10:40:05.985Z,17.39
2023-03-20T10:42:40.902Z,17.39
2023-03-20T10:45:25.788Z,17.39
2023-03-20T10:47:52.723Z,17.39
2023-03-20T10:50:23.886Z,17.39
2023-03-20T10:52:53.837Z,17.39
2023-03-20T10:55:34.941Z,17.40
2023-03-20T10:58:13.420Z,17.39
2023-03-20T11:00:41.149Z,17.39
2023-03-20T11:03:22.440Z,17.39
2023-03-20T11:06:09.295Z,17.40
2023-03-20T11:08:42.519Z,17.40
2023-03-20T11:11:09.756Z,17.40
2023-03-20T11:13:40.125Z,17.39
2023-03-20T11:16:22.079Z,17.38
2023-03-20T11:18:51.078Z,17.40
2023-03-20T11:21:29.186Z,17.39
2023-03-20T11:23:56.201Z,17.40
2023-03-20T11:26:39.072Z,17.40
2023-03-20T11:29:07.934Z,17.41
2023-03-20T11:31:37.374Z,17.40
2023-03-20T11:34:06.950Z,17.40
2023-03-20T11:36:35.526Z,17.42
2023-03-20T11:39:14.525Z,17.41
2023-03-20T11:41:50.178Z,17.41
2023-03-20T11:44:31.732Z,17.41
2023-03-20T11:47:26.271Z,17.42
2023-03-20T11:49:59.518Z,17.42
2023-03-20T11:52:32.929Z,17.43
2023-03-20T11:55:07.000Z,17.43
2023-03-20T11:57:41.889Z,17.42
2023-03-20T12:00:11.439Z,17.42
2023-03-20T12:02:41.295Z,17.42
2023-03-20T12:05:29.987Z,17.39
2023-03-20T12:08:00.967Z,17.41
2023-03-20T12:10:32.918Z,17.40
2023-03-20T12:13:02.907Z,17.40
2023-03-20T12:15:34.246Z,17.39
2023-03-20T12:18:28.989Z,17.41
2023-03-20T12:21:09.667Z,17.40
2023-03-20T12:23:48.162Z,17.39
2023-03-20T12:27:14.081Z,17.36
2023-03-20T12:29:50.146Z,17.39
2023-03-20T12:32:41.609Z,17.36
2023-03-20T12:35:41.213Z,17.35
2023-03-20T12:38:29.684Z,17.35
2023-03-20T12:41:27.479Z,17.33
2023-03-20T12:44:31.746Z,17.32
2023-03-20T12:47:19.889Z,17.33
2023-03-20T12:50:19.358Z,17.31
2023-03-20T12:52:55.213Z,17.34
2023-03-20T12:55:31.617Z,17.33
2023-03-20T12:58:14.658Z,17.33
2023-03-20T13:01:06.214Z,17.35
2023-03-20T13:04:09.626Z,17.32
2023-03-20T13:06:53.341Z,17.32
2023-03-20T13:09:36.686Z,17.33
2023-03-20T13:12:15.437Z,17.31
2023-03-20T13:14:52.735Z,17.30
2023-03-20T13:17:31.752Z,17.28
2023-03-20T13:20:04.453Z,17.29
2023-03-20T13:22:53.835Z,17.26
2023-03-20T13:25:26.200Z,17.27
2023-03-20T13:28:20.975Z,17.26
2023-03-20T13:31:27.087Z,17.27
2023-03-20T13:34:25.845Z,17.25
2023-03-20T13:37:23.882Z,17.26
2023-03-20T13:40:13.908Z,17.25
2023-03-20T13:43:05.400Z,17.24
2023-03-20T13:45:38.540Z,17.24
2023-03-20T13:48:31.095Z,17.23
2023-03-20T13:50:58.700Z,17.23
2023-03-20T13:53:33.514Z,17.22
2023-03-20T13:56:05.436Z,17.22
2023-03-20T13:58:41.168Z,17.24
2023-03-20T14:01:19.810Z,17.24
2023-03-20T14:03:47.333Z,17.22
2023-03-20T14:06:27.972Z,17.22
2023-03-20T14:08:54.669Z,17.22
2023-03-20T14:11:21.242Z,17.21
2023-03-20T14:13:55.322Z,17.21
2023-03-20T14:16:22.566Z,17.21
2023-03-20T14:19:04.586Z,17.20
2023-03-20T14:21:31.268Z,17.20
2023-03-20T14:24:03.340Z,17.19
2023-03-20T14:26:34.592Z,17.18
2023-03-20T14:29:20.417Z,17.18
2023-03-20T14:31:52.128Z,17.18
2023-03-20T14:34:24.657Z,17.16
2023-03-20T14:37:05.682Z,17.16
2023-03-20T14:39:43.950Z,17.14
2023-03-20T14:42:19.722Z,17.14
2023-03-20T14:45:19.237Z,17.13
2023-03-20T14:47:54.774Z,17.13
2023-03-20T14:50:36.719Z,17.13
2023-03-20T14:53:16.181Z,17.12
2023-03-20T14:55:57.979Z,17.11
2023-03-20T14:58:33.522Z,17.11
2023-03-20T15:01:06.356Z,17.11
2023-03-20T15:03:33.696Z,17.11
2023-03-20T15:06:05.261Z,17.10
2023-03-20T15:08:36.049Z,17.10
2023-03-20T15:11:08.782Z,17.10
2023-03-20T15:13:37.650Z,17.09
2023-03-20T15:16:13.501Z,17.09
2023-03-20T15:18:46.457Z,17.08
2023-03-20T15:21:19.968Z,17.08
2023-03-20T15:23:48.094Z,17.07
2023-03-20T15:26:18.864Z,17.07
2023-03-20T15:28:47.011Z,17.07
2023-03-20T15:31:30.256Z,17.07
2023-03-20T15:33:57.800Z,17.08
2023-03-20T15:36:28.350Z,17.09
2023-03-20T15:39:14.362Z,17.11
2023-03-20T15:41:46.317Z,17.18
2023-03-20T15:44:15.910Z,17.28
2023-03-20T15:47:01.372Z,17.43
2023-03-20T15:49:30.555Z,17.58
2023-03-20T15:52:00.819Z,17.75
2023-03-20T15:54:27.729Z,17.95
2023-03-20T15:56:58.172Z,18.15
2023-03-20T15:59:29.275Z,18.37
2023-03-20T16:01:58.205Z,18.58
2023-03-20T16:04:26.154Z,18.80
2023-03-20T16:07:00.498Z,18.99
2023-03-20T16:09:28.319Z,19.18
2023-03-20T16:12:00.142Z,19.36
2023-03-20T16:14:31.592Z,19.52
2023-03-20T16:17:00.355Z,19.69
2023-03-20T16:19:29.060Z,19.85
2023-03-20T16:22:03.362Z,20.01
2023-03-20T16:24:36.591Z,20.15
2023-03-20T16:27:08.405Z,20.29
2023-03-20T16:29:37.018Z,20.40
2023-03-20T16:32:38.617Z,20.52
2023-03-20T16:35:20.057Z,20.64
2023-03-20T16:37:55.479Z,20.77
2023-03-20T16:40:34.119Z,20.87
2023-03-20T16:43:18.660Z,20.98
2023-03-20T16:45:49.175Z,21.10
2023-03-20T16:48:15.626Z,21.19
2023-03-20T16:50:45.302Z,21.29
2023-03-20T16:53:15.820Z,21.36
2023-03-20T16:55:45.721Z,21.40
2023-03-20T16:58:21.801Z,21.41
2023-03-20T17:00:52.887Z,21.41
2023-03-20T17:03:26.011Z,21.43
2023-03-20T17:05:59.575Z,21.41
2023-03-20T17:08:41.394Z,21.38
2023-03-20T17:11:14.510Z,21.38
2023-03-20T17:13:41.793Z,21.32
2023-03-20T17:16:17.972Z,21.23
2023-03-20T17:18:46.445Z,21.15
2023-03-20T17:21:13.885Z,21.09
2023-03-20T17:23:40.910Z,21.03
2023-03-20T17:26:12.798Z,20.94
2023-03-20T17:28:39.806Z,20.88
2023-03-20T17:31:06.685Z,20.82
2023-03-20T17:33:33.853Z,20.75
2023-03-20T17:36:00.916Z,20.70
2023-03-20T17:38:27.766Z,20.68
2023-03-20T17:40:54.353Z,20.68
2023-03-20T17:43:21.099Z,20.69
2023-03-20T17:45:47.909Z,20.74
2023-03-20T17:48:17.892Z,20.78
2023-03-20T17:50:45.859Z,20.84
2023-03-20T17:53:15.769Z,20.89
2023-03-20T17:55:42.381Z,20.94
2023-03-20T17:58:17.139Z,20.99
2023-03-20T18:00:44.684Z,21.05
2023-03-20T18:03:12.044Z,21.10
2023-03-20T18:05:39.655Z,21.17
2023-03-20T18:08:14.127Z,21.27
2023-03-20T18:10:41.186Z,21.37
2023-03-20T18:13:07.871Z,21.48
2023-03-20T18:15:34.538Z,21.59
2023-03-20T18:18:01.221Z,21.67
2023-03-20T18:20:33.431Z,21.75
2023-03-20T18:23:00.219Z,21.82
2023-03-20T18:25:27.402Z,21.84
2023-03-20T18:27:55.978Z,21.84
2023-03-20T18:30:26.043Z,21.83
2023-03-20T18:32:52.760Z,21.80
2023-03-20T18:35:19.283Z,21.75
2023-03-20T18:37:46.030Z,21.68
2023-03-20T18:40:23.262Z,21.62
2023-03-20T18:42:49.805Z,21.57
2023-03-20T18:45:16.949Z,21.49
2023-03-20T18:47:43.512Z,21.45
2023-03-20T18:50:37.511Z,21.38
2023-03-20T18:53:06.502Z,21.37
2023-03-20T18:55:34.076Z,21.31
2023-03-20T18:58:03.775Z,21.29
2023-03-20T19:00:40.575Z,21.21
2023-03-20T19:03:08.296Z,21.17
2023-03-20T19:05:34.881Z,21.13
2023-03-20T19:08:03.195Z,21.07
2023-03-20T19:10:38.826Z,20.95
2023-03-20T19:13:07.469Z,20.84
2023-03-20T19:15:36.369Z,20.76
2023-03-20T19:18:09.224Z,20.75
2023-03-20T19:20:42.147Z,20.69
2023-03-20T19:23:11.133Z,20.66
2023-03-20T19:25:38.517Z,20.64
2023-03-20T19:28:05.528Z,20.59
2023-03-20T19:30:38.219Z,20.52
2023-03-20T19:33:06.912Z,20.46
2023-03-20T19:38:22.130Z,20.28
2023-03-20T19:40:53.099Z,20.18
2023-03-20T19:43:23.080Z,20.09
2023-03-20T19:45:59.304Z,20.01
2023-03-20T19:48:46.004Z,19.92
2023-03-20T19:51:18.228Z,19.87
2023-03-20T19:53:46.009Z,19.82
2023-03-20T19:56:14.333Z,19.76
2023-03-20T19:58:41.100Z,19.69
2023-03-20T20:01:15.087Z,19.62
2023-03-20T20:03:42.258Z,19.57
2023-03-20T20:06:08.833Z,19.53
2023-03-20T20:08:46.909Z,19.48
2023-03-20T20:11:15.504Z,19.43
2023-03-20T20:14:04.086Z,19.39
2023-03-20T20:16:29.636Z,19.32
2023-03-20T20:18:56.209Z,19.30
2023-03-20T20:24:09.294Z,19.20
2023-03-20T20:26:41.245Z,19.16
2023-03-20T20:29:14.382Z,19.12
2023-03-20T20:31:40.990Z,19.08
2023-03-20T20:35:07.372Z,19.05
2023-03-20T20:39:41.010Z,18.96
2023-03-20T20:42:07.617Z,18.92
2023-03-20T20:44:34.654Z,18.89
2023-03-20T20:47:01.205Z,18.86
2023-03-20T20:49:27.783Z,18.85
2023-03-20T20:51:54.339Z,18.83
2023-03-20T20:54:21.298Z,18.80
2023-03-20T20:56:47.847Z,18.77
2023-03-20T20:59:14.423Z,18.74
2023-03-20T21:01:41.144Z,18.74
2023-03-20T21:04:07.962Z,18.71
2023-03-20T21:07:05.757Z,18.69
2023-03-20T21:09:21.030Z,18.67
2023-03-20T21:11:47.661Z,18.65
2023-03-20T21:14:14.498Z,18.64
2023-03-20T21:16:40.996Z,18.61
2023-03-20T21:19:07.695Z,18.60
2023-03-20T21:21:35.661Z,18.58
2023-03-20T21:24:02.661Z,18.58
2023-03-20T21:26:29.344Z,18.56
2023-03-20T21:28:55.914Z,18.55
2023-03-20T21:31:30.878Z,18.54
2023-03-20T21:33:57.877Z,18.54
2023-03-20T21:36:24.873Z,18.52
2023-03-20T21:39:07.786Z,18.50
2023-03-20T21:41:37.626Z,18.49
2023-03-20T21:44:05.554Z,18.48
2023-03-20T22:03:33.714Z,18.40
2023-03-20T22:15:11.925Z,18.34
2023-03-20T22:20:44.734Z,18.33
2023-03-20T22:26:18.282Z,18.29
2023-03-20T22:34:44.974Z,18.24
2023-03-20T22:37:42.570Z,18.23
2023-03-20T22:45:16.250Z,18.20
2023-03-20T22:47:42.940Z,18.19
2023-03-20T22:50:10.115Z,18.18
2023-03-20T22:52:49.140Z,18.16
2023-03-20T22:55:17.016Z,18.15
2023-03-20T22:57:52.837Z,18.13
2023-03-20T23:00:22.801Z,18.13
2023-03-20T23:02:52.891Z,18.12
2023-03-20T23:05:19.548Z,18.12
2023-03-20T23:07:46.166Z,18.11
2023-03-20T23:10:15.592Z,18.09
2023-03-20T23:12:44.066Z,18.10
2023-03-20T23:15:11.178Z,18.08
2023-03-20T23:17:37.770Z,18.07
2023-03-20T23:20:12.627Z,18.07
2023-03-20T23:22:39.810Z,18.05
2023-03-20T23:25:16.446Z,18.04
2023-03-20T23:27:47.420Z,18.03
2023-03-20T23:30:14.782Z,18.01
2023-03-20T23:32:41.538Z,18.00
2023-03-20T23:35:08.987Z,17.99
2023-03-20T23:37:36.260Z,17.99
2023-03-20T23:40:04.529Z,17.97
2023-03-20T23:42:31.380Z,17.98
2023-03-20T23:45:04.334Z,17.96
2023-03-20T23:50:30.003Z,17.95
2023-03-20T23:53:13.129Z,17.94
2023-03-20T23:55:46.227Z,17.93
2023-03-20T23:58:13.161Z,17.93
